createdAt,value
2022-11-20T00:01:40.654Z,16.40
2022-11-20T00:04:10.922Z,22.30
2022-11-20T00:06:41.319Z,31.27
2022-11-20T00:09:12.222Z,39.50
2022-11-20T00:11:41.117Z,38.53
2022-11-20T00:14:11.374Z,35.77
2022-11-20T00:16:39.942Z,31.13
2022-11-20T00:19:08.484Z,23.67
2022-11-20T00:21:37.285Z,22.30
2022-11-20T00:24:08.346Z,18.37
2022-11-20T00:26:36.945Z,16.30
2022-11-20T00:29:05.726Z,16.10
2022-11-20T00:31:35.161Z,13.37
2022-11-20T00:34:03.816Z,17.90
2022-11-20T00:36:35.814Z,12.43
2022-11-20T00:39:06.287Z,11.90
2022-11-20T00:41:35.183Z,12.33
2022-11-20T00:44:03.855Z,14.43
2022-11-20T00:46:32.390Z,10.83
2022-11-20T00:49:01.077Z,11.83
2022-11-20T00:51:29.991Z,10.17
2022-11-20T00:53:59.223Z,11.27
2022-11-20T00:56:29.307Z,13.27
2022-11-20T00:58:58.085Z,10.90
2022-11-20T01:01:30.540Z,11.10
2022-11-20T01:04:01.051Z,14.00
2022-11-20T01:06:32.021Z,11.43
2022-11-20T01:09:02.823Z,9.20
2022-11-20T01:11:35.541Z,11.03
2022-11-20T01:14:06.492Z,12.57
2022-11-20T01:16:37.235Z,10.27
2022-11-20T01:19:08.282Z,14.20
2022-11-20T01:21:38.952Z,15.87
2022-11-20T01:24:09.845Z,12.13
2022-11-20T01:26:41.547Z,12.47
2022-11-20T01:29:16.015Z,14.43
2022-11-20T01:31:44.707Z,19.83
2022-11-20T01:34:15.765Z,10.77
2022-11-20T01:36:45.342Z,15.40
2022-11-20T01:39:15.971Z,11.33
2022-11-20T01:42:09.648Z,10.17
2022-11-20T01:44:55.601Z,20.10
2022-11-20T01:47:29.732Z,11.63
2022-11-20T01:50:02.085Z,10.00
2022-11-20T01:52:37.261Z,10.43
2022-11-20T01:55:10.217Z,7.83
2022-11-20T01:57:42.182Z,12.00
2022-11-20T02:00:13.030Z,9.80
2022-11-20T02:02:43.171Z,11.77
2022-11-20T02:05:19.479Z,14.27
2022-11-20T02:07:49.000Z,13.47
2022-11-20T02:10:17.766Z,24.13
2022-11-20T02:13:05.375Z,27.60
2022-11-20T02:15:35.774Z,24.67
2022-11-20T02:18:04.332Z,16.73
2022-11-20T02:20:32.973Z,18.70
2022-11-20T02:23:06.143Z,15.87
2022-11-20T02:25:37.833Z,11.20
2022-11-20T02:28:07.491Z,12.67
2022-11-20T02:30:36.302Z,12.17
2022-11-20T02:33:04.886Z,18.00
2022-11-20T02:35:45.532Z,12.40
2022-11-20T02:38:15.282Z,12.67
2022-11-20T02:40:45.776Z,15.47
2022-11-20T02:43:14.403Z,13.40
2022-11-20T02:45:42.970Z,11.00
2022-11-20T02:48:11.420Z,14.40
2022-11-20T02:50:41.866Z,10.97
2022-11-20T02:53:10.482Z,13.93
2022-11-20T02:55:38.983Z,10.43
2022-11-20T02:58:08.882Z,14.60
2022-11-20T03:00:37.360Z,13.77
2022-11-20T03:03:05.819Z,14.50
2022-11-20T03:05:34.660Z,12.40
2022-11-20T03:08:03.154Z,14.37
2022-11-20T03:10:31.673Z,13.90
2022-11-20T03:13:00.251Z,13.80
2022-11-20T03:15:30.218Z,15.30
2022-11-20T03:17:58.699Z,13.10
2022-11-20T03:20:27.430Z,16.07
2022-11-20T03:22:56.892Z,11.90
2022-11-20T03:25:25.308Z,14.53
2022-11-20T03:27:53.805Z,17.80
2022-11-20T03:30:27.707Z,14.37
2022-11-20T03:33:00.854Z,18.60
2022-11-20T03:35:31.057Z,11.57
2022-11-20T03:38:00.402Z,13.30
2022-11-20T03:40:28.864Z,13.67
2022-11-20T03:42:57.340Z,15.10
2022-11-20T03:45:25.848Z,15.90
2022-11-20T03:47:54.322Z,16.33
2022-11-20T03:50:24.578Z,11.43
2022-11-20T03:52:53.359Z,13.37
2022-11-20T03:55:21.828Z,13.57
2022-11-20T03:57:50.720Z,14.67
2022-11-20T04:00:19.500Z,12.03
2022-11-20T04:02:48.483Z,12.73
2022-11-20T04:05:17.510Z,14.73
2022-11-20T04:07:47.505Z,15.73
2022-11-20T04:10:16.167Z,13.43
2022-11-20T04:12:45.321Z,12.17
2022-11-20T04:15:13.986Z,12.33
2022-11-20T04:17:42.560Z,11.60
2022-11-20T04:20:12.009Z,11.53
2022-11-20T04:22:40.898Z,12.00
2022-11-20T04:25:11.659Z,12.00
2022-11-20T04:27:40.218Z,12.07
2022-11-20T04:30:09.703Z,15.47
2022-11-20T04:32:38.234Z,14.43
2022-11-20T04:35:07.590Z,15.80
2022-11-20T04:37:36.072Z,13.70
2022-11-20T04:40:04.896Z,15.17
2022-11-20T04:42:35.165Z,16.57
2022-11-20T04:45:03.835Z,15.97
2022-11-20T04:47:32.496Z,14.70
2022-11-20T04:50:01.025Z,16.23
2022-11-20T04:52:29.824Z,11.37
2022-11-20T04:54:58.331Z,15.63
2022-11-20T04:57:26.766Z,15.40
2022-11-20T04:59:56.626Z,15.57
2022-11-20T05:02:25.490Z,22.03
2022-11-20T05:04:56.602Z,18.40
2022-11-20T05:07:25.164Z,19.20
2022-11-20T05:09:53.761Z,20.10
2022-11-20T05:12:22.170Z,19.47
2022-11-20T05:14:50.750Z,19.00
2022-11-20T05:17:20.958Z,20.63
2022-11-20T05:19:52.976Z,18.77
2022-11-20T05:22:21.721Z,17.53
2022-11-20T05:24:50.222Z,13.70
2022-11-20T05:27:19.087Z,17.77
2022-11-20T05:29:47.615Z,17.77
2022-11-20T05:32:16.467Z,17.47
2022-11-20T05:34:46.402Z,16.63
2022-11-20T05:37:14.946Z,15.90
2022-11-20T05:39:43.405Z,17.23
2022-11-20T05:42:29.429Z,18.07
2022-11-20T05:44:58.183Z,17.90
2022-11-20T05:47:26.823Z,18.90
2022-11-20T05:49:58.501Z,16.70
2022-11-20T05:52:27.176Z,16.03
2022-11-20T05:54:55.725Z,16.77
2022-11-20T05:57:24.727Z,17.97
2022-11-20T05:59:53.241Z,17.30
2022-11-20T06:02:21.768Z,15.07
2022-11-20T06:04:50.430Z,17.90
2022-11-20T06:07:20.537Z,17.27
2022-11-20T06:09:48.995Z,14.03
2022-11-20T06:12:17.783Z,27.33
2022-11-20T06:14:46.256Z,20.27
2022-11-20T06:17:15.448Z,17.50
2022-11-20T06:19:43.985Z,16.67
2022-11-20T06:22:12.756Z,17.03
2022-11-20T06:24:42.653Z,20.47
2022-11-20T06:27:11.200Z,21.00
2022-11-20T06:29:39.826Z,22.27
2022-11-20T06:32:08.526Z,18.10
2022-11-20T06:34:36.998Z,16.57
2022-11-20T06:37:05.583Z,12.10
2022-11-20T06:39:34.017Z,15.13
2022-11-20T06:42:04.482Z,18.57
2022-11-20T06:44:32.944Z,14.33
2022-11-20T06:47:02.121Z,19.27
2022-11-20T06:49:30.833Z,15.37
2022-11-20T06:51:59.744Z,22.37
2022-11-20T06:54:28.198Z,18.33
2022-11-20T06:56:56.723Z,18.80
2022-11-20T06:59:26.653Z,18.13
2022-11-20T07:01:55.508Z,15.80
2022-11-20T07:04:24.008Z,15.33
2022-11-20T07:06:52.468Z,13.70
2022-11-20T07:09:20.924Z,12.17
2022-11-20T07:11:49.466Z,10.43
2022-11-20T07:14:18.067Z,13.67
2022-11-20T07:16:48.229Z,11.27
2022-11-20T07:19:16.698Z,15.00
2022-11-20T07:21:45.261Z,14.53
2022-11-20T07:24:13.745Z,13.33
2022-11-20T07:26:42.331Z,12.90
2022-11-20T07:29:10.847Z,15.67
2022-11-20T07:31:39.590Z,12.03
2022-11-20T07:34:09.617Z,11.23
2022-11-20T07:36:38.115Z,15.03
2022-11-20T07:39:06.714Z,16.67
2022-11-20T07:41:35.681Z,18.87
2022-11-20T07:44:04.420Z,14.70
2022-11-20T07:46:33.082Z,16.93
2022-11-20T07:49:01.629Z,16.37
2022-11-20T07:51:31.903Z,15.80
2022-11-20T07:54:00.349Z,17.47
2022-11-20T07:56:28.930Z,14.70
2022-11-20T07:58:57.490Z,15.70
2022-11-20T08:01:26.341Z,13.90
2022-11-20T08:03:54.880Z,17.20
2022-11-20T08:06:23.442Z,14.27
2022-11-20T08:08:53.381Z,16.23
2022-11-20T08:11:47.878Z,16.13
2022-11-20T08:14:16.929Z,16.73
2022-11-20T08:16:47.734Z,18.30
2022-11-20T08:19:18.733Z,16.27
2022-11-20T08:21:47.437Z,15.23
2022-11-20T08:24:17.477Z,16.27
2022-11-20T08:26:45.978Z,16.43
2022-11-20T08:29:15.061Z,21.13
2022-11-20T08:31:43.684Z,16.50
2022-11-20T08:34:17.641Z,18.00
2022-11-20T08:36:48.669Z,16.73
2022-11-20T08:39:19.065Z,16.47
2022-11-20T08:41:47.745Z,18.07
2022-11-20T08:44:16.342Z,14.97
2022-11-20T08:46:46.899Z,17.70
2022-11-20T08:49:19.172Z,15.83
2022-11-20T08:51:49.557Z,17.03
2022-11-20T08:54:20.946Z,16.67
2022-11-20T08:56:49.892Z,19.20
2022-11-20T08:59:44.134Z,19.60
2022-11-20T09:02:07.261Z,18.93
2022-11-20T09:04:36.369Z,18.37
2022-11-20T09:07:05.080Z,16.67
2022-11-20T09:09:35.276Z,18.43
2022-11-20T09:12:03.888Z,20.37
2022-11-20T09:14:32.982Z,19.53
2022-11-20T09:17:01.949Z,23.47
2022-11-20T09:19:37.756Z,20.13
2022-11-20T09:22:06.576Z,19.10
2022-11-20T09:24:37.860Z,18.90
2022-11-20T09:27:07.519Z,27.33
2022-11-20T09:29:36.605Z,24.40
2022-11-20T09:32:05.454Z,27.53
2022-11-20T09:34:34.784Z,24.63
2022-11-20T09:37:06.321Z,27.63
2022-11-20T09:39:40.330Z,28.63
2022-11-20T09:42:33.903Z,34.37
2022-11-20T09:45:18.925Z,32.37
2022-11-20T09:48:04.343Z,34.33
2022-11-20T09:50:36.945Z,31.97
2022-11-20T09:53:16.057Z,35.53
2022-11-20T09:55:48.173Z,31.77
2022-11-20T09:58:24.496Z,37.00
2022-11-20T10:00:57.585Z,33.97
2022-11-20T10:03:38.424Z,31.00
2022-11-20T10:06:12.977Z,27.87
2022-11-20T10:08:47.554Z,30.10
2022-11-20T10:11:24.580Z,34.37
2022-11-20T10:14:03.939Z,40.67
2022-11-20T10:16:43.995Z,41.83
2022-11-20T10:19:28.427Z,43.93
2022-11-20T10:22:06.711Z,45.63
2022-11-20T10:24:50.709Z,42.97
2022-11-20T10:27:39.529Z,39.33
2022-11-20T10:30:12.101Z,38.47
2022-11-20T10:32:43.552Z,38.30
2022-11-20T10:35:22.729Z,37.87
2022-11-20T10:37:55.855Z,35.70
2022-11-20T10:40:33.483Z,40.40
2022-11-20T10:43:07.617Z,35.77
2022-11-20T10:45:56.681Z,38.07
2022-11-20T10:48:26.959Z,39.13
2022-11-20T10:51:13.783Z,36.90
2022-11-20T10:54:07.929Z,35.47
2022-11-20T10:56:46.856Z,36.03
2022-11-20T10:59:48.229Z,34.70
2022-11-20T11:02:22.281Z,36.27
2022-11-20T11:04:53.134Z,34.63
2022-11-20T11:07:26.653Z,34.33
2022-11-20T11:09:57.529Z,33.30
2022-11-20T11:12:28.712Z,33.37
2022-11-20T11:15:02.381Z,32.57
2022-11-20T11:17:34.730Z,28.00
2022-11-20T11:20:16.643Z,28.40
2022-11-20T11:22:47.782Z,34.77
2022-11-20T11:25:25.407Z,31.03
2022-11-20T11:27:57.375Z,38.87
2022-11-20T11:30:33.137Z,38.10
2022-11-20T11:33:11.619Z,30.80
2022-11-20T11:35:51.294Z,35.03
2022-11-20T11:38:31.018Z,39.23
2022-11-20T11:41:00.902Z,31.60
2022-11-20T11:43:50.086Z,31.97
2022-11-20T11:46:33.176Z,32.17
2022-11-20T11:49:03.364Z,31.60
2022-11-20T11:51:38.803Z,27.43
2022-11-20T11:54:17.713Z,29.17
2022-11-20T11:56:47.288Z,25.10
2022-11-20T11:59:23.248Z,28.80
2022-11-20T12:01:59.434Z,28.33
2022-11-20T12:04:44.686Z,29.93
2022-11-20T12:07:44.811Z,27.60
2022-11-20T12:10:08.606Z,26.27
2022-11-20T12:12:43.992Z,27.07
2022-11-20T12:15:18.506Z,29.37
2022-11-20T12:17:48.985Z,29.30
2022-11-20T12:20:18.454Z,27.33
2022-11-20T12:22:54.013Z,27.40
2022-11-20T12:25:27.468Z,28.47
2022-11-20T12:28:31.894Z,28.63
2022-11-20T12:31:36.916Z,27.73
2022-11-20T12:34:30.267Z,30.10
2022-11-20T12:37:08.919Z,25.83
2022-11-20T12:39:40.589Z,24.73
2022-11-20T12:43:00.706Z,29.10
2022-11-20T12:45:56.504Z,26.83
2022-11-20T12:48:46.584Z,26.07
2022-11-20T12:51:32.470Z,23.33
2022-11-20T12:54:33.437Z,25.03
2022-11-20T12:57:12.012Z,26.53
2022-11-20T13:00:01.928Z,26.63
2022-11-20T13:02:39.091Z,27.63
2022-11-20T13:05:24.294Z,25.40
2022-11-20T13:07:56.206Z,26.33
2022-11-20T13:10:33.621Z,27.77
2022-11-20T13:13:10.052Z,30.50
2022-11-20T13:15:50.377Z,31.50
2022-11-20T13:18:19.769Z,27.40
2022-11-20T13:20:49.359Z,33.43
2022-11-20T13:23:28.724Z,29.37
2022-11-20T13:26:08.849Z,32.13
2022-11-20T13:28:38.866Z,29.20
2022-11-20T13:31:08.088Z,32.43
2022-11-20T13:33:39.358Z,27.77
2022-11-20T13:36:10.182Z,26.20
2022-11-20T13:38:49.857Z,27.27
2022-11-20T13:41:32.337Z,29.23
2022-11-20T13:44:09.020Z,25.63
2022-11-20T13:46:40.248Z,26.97
2022-11-20T13:49:12.807Z,29.20
2022-11-20T13:51:47.398Z,27.67
2022-11-20T13:54:54.680Z,27.47
2022-11-20T13:58:02.371Z,36.00
2022-11-20T14:00:31.168Z,31.07
2022-11-20T14:03:13.452Z,30.40
2022-11-20T14:05:50.198Z,30.30
2022-11-20T14:08:27.853Z,26.60
2022-11-20T14:11:15.041Z,25.90
2022-11-20T14:13:59.981Z,26.77
2022-11-20T14:16:31.064Z,27.00
2022-11-20T14:19:19.976Z,26.70
2022-11-20T14:21:49.014Z,24.30
2022-11-20T14:24:22.626Z,26.80
2022-11-20T14:26:53.364Z,25.17
2022-11-20T14:29:29.255Z,24.57
2022-11-20T14:32:00.072Z,27.67
2022-11-20T14:34:31.693Z,26.40
2022-11-20T14:37:02.831Z,37.87
2022-11-20T14:39:35.462Z,28.60
2022-11-20T14:42:04.454Z,30.20
2022-11-20T14:44:39.441Z,31.27
2022-11-20T14:47:11.595Z,27.93
2022-11-20T14:49:42.327Z,27.07
2022-11-20T14:52:16.731Z,25.50
2022-11-20T14:54:49.862Z,23.13
2022-11-20T14:57:25.473Z,24.03
2022-11-20T15:00:10.987Z,23.97
2022-11-20T15:02:43.700Z,25.57
2022-11-20T15:05:12.921Z,25.03
2022-11-20T15:07:46.940Z,25.87
2022-11-20T15:10:23.574Z,26.80
2022-11-20T15:12:54.922Z,30.80
2022-11-20T15:15:31.718Z,31.60
2022-11-20T15:18:01.433Z,28.30
2022-11-20T15:20:32.946Z,26.83
2022-11-20T15:23:01.617Z,32.87
2022-11-20T15:25:30.376Z,28.80
2022-11-20T15:27:59.459Z,28.47
2022-11-20T15:30:29.941Z,25.40
2022-11-20T15:32:58.676Z,25.83
2022-11-20T15:35:27.473Z,29.37
2022-11-20T15:37:56.186Z,47.40
2022-11-20T15:40:25.265Z,34.30
2022-11-20T15:43:12.566Z,31.53
2022-11-20T15:45:46.877Z,31.93
2022-11-20T15:48:18.269Z,29.50
2022-11-20T15:50:55.075Z,29.67
2022-11-20T15:53:23.978Z,28.60
2022-11-20T15:55:53.157Z,27.27
2022-11-20T15:58:24.074Z,30.30
2022-11-20T16:00:54.597Z,30.53
2022-11-20T16:03:24.040Z,32.27
2022-11-20T16:05:53.053Z,32.20
2022-11-20T16:08:21.845Z,31.47
2022-11-20T16:10:50.857Z,34.03
2022-11-20T16:13:38.063Z,39.27
2022-11-20T16:16:12.198Z,33.63
2022-11-20T16:18:40.788Z,33.37
2022-11-20T16:21:14.446Z,36.70
2022-11-20T16:23:43.827Z,36.47
2022-11-20T16:26:13.734Z,37.20
2022-11-20T16:28:42.978Z,39.67
2022-11-20T16:31:14.695Z,43.33
2022-11-20T16:33:43.751Z,38.10
2022-11-20T16:36:14.288Z,43.80
2022-11-20T16:38:43.793Z,43.43
2022-11-20T16:41:15.613Z,52.83
2022-11-20T16:43:48.798Z,50.27
2022-11-20T16:46:21.410Z,51.20
2022-11-20T16:48:56.600Z,48.77
2022-11-20T16:51:26.519Z,46.30
2022-11-20T16:53:56.626Z,47.00
2022-11-20T16:56:27.115Z,52.03
2022-11-20T16:58:57.547Z,49.53
2022-11-20T17:01:29.469Z,43.43
2022-11-20T17:03:59.738Z,48.30
2022-11-20T17:06:30.388Z,49.37
2022-11-20T17:08:59.839Z,51.93
2022-11-20T17:11:29.926Z,53.93
2022-11-20T17:14:00.746Z,47.67
2022-11-20T17:16:31.166Z,52.80
2022-11-20T17:19:03.195Z,47.77
2022-11-20T17:21:33.681Z,50.03
2022-11-20T17:24:03.798Z,60.53
2022-11-20T17:26:33.160Z,56.27
2022-11-20T17:29:03.115Z,50.37
2022-11-20T17:31:35.412Z,62.53
2022-11-20T17:34:04.630Z,58.50
2022-11-20T17:36:34.116Z,62.40
2022-11-20T17:39:02.846Z,63.70
2022-11-20T17:41:31.935Z,63.50
2022-11-20T17:44:02.503Z,55.67
2022-11-20T17:46:34.731Z,63.47
2022-11-20T17:49:04.131Z,49.27
2022-11-20T17:51:35.321Z,45.73
2022-11-20T17:54:07.649Z,62.63
2022-11-20T17:56:54.613Z,55.50
2022-11-20T17:59:23.907Z,55.00
2022-11-20T18:01:56.792Z,62.97
2022-11-20T18:04:28.534Z,64.73
2022-11-20T18:06:57.369Z,64.67
2022-11-20T18:09:26.532Z,72.47
2022-11-20T18:11:55.228Z,62.50
2022-11-20T18:14:36.694Z,59.40
2022-11-20T18:17:08.357Z,71.23
2022-11-20T18:19:44.977Z,81.33
2022-11-20T18:22:24.235Z,69.20
2022-11-20T18:24:52.956Z,65.47
2022-11-20T18:27:24.154Z,66.80
2022-11-20T18:29:53.048Z,72.27
2022-11-20T18:32:24.213Z,62.37
2022-11-20T18:34:53.349Z,65.87
2022-11-20T18:37:22.554Z,69.50
2022-11-20T18:39:51.381Z,78.10
2022-11-20T18:42:37.638Z,61.53
2022-11-20T18:45:07.186Z,112.17
2022-11-20T18:47:40.422Z,76.67
2022-11-20T18:50:11.089Z,77.20
2022-11-20T18:52:44.973Z,65.27
2022-11-20T18:55:14.024Z,79.10
2022-11-20T18:57:43.244Z,70.03
2022-11-20T19:00:13.169Z,76.70
2022-11-20T19:02:43.633Z,89.13
2022-11-20T19:05:13.781Z,75.60
2022-11-20T19:07:42.757Z,77.23
2022-11-20T19:10:11.884Z,87.50
2022-11-20T19:12:40.768Z,76.77
2022-11-20T19:15:11.028Z,76.47
2022-11-20T19:17:40.102Z,81.60
2022-11-20T19:20:11.695Z,67.00
2022-11-20T19:22:40.359Z,75.77
2022-11-20T19:25:10.041Z,79.17
2022-11-20T19:27:39.371Z,79.10
2022-11-20T19:30:09.056Z,78.50
2022-11-20T19:32:37.779Z,81.40
2022-11-20T19:35:07.428Z,80.53
2022-11-20T19:37:37.734Z,81.30
2022-11-20T19:40:07.905Z,69.63
2022-11-20T19:42:36.685Z,63.60
2022-11-20T19:45:06.273Z,77.67
2022-11-20T19:48:01.060Z,86.80
2022-11-20T19:50:24.142Z,75.97
2022-11-20T19:52:58.684Z,68.10
2022-11-20T19:55:27.914Z,76.53
2022-11-20T19:57:56.923Z,79.07
2022-11-20T20:00:32.602Z,68.47
2022-11-20T20:03:02.290Z,78.83
2022-11-20T20:05:31.841Z,67.30
2022-11-20T20:08:02.617Z,75.83
2022-11-20T20:10:33.249Z,73.63
2022-11-20T20:13:02.269Z,72.77
2022-11-20T20:15:32.571Z,71.87
2022-11-20T20:18:01.611Z,77.23
2022-11-20T20:20:30.687Z,74.33
2022-11-20T20:22:59.550Z,66.63
2022-11-20T20:25:29.799Z,68.70
2022-11-20T20:27:58.766Z,72.87
2022-11-20T20:30:28.161Z,81.00
2022-11-20T20:32:57.073Z,83.00
2022-11-20T20:35:26.169Z,67.60
2022-11-20T20:37:55.364Z,76.00
2022-11-20T20:40:24.930Z,65.77
2022-11-20T20:42:55.595Z,58.10
2022-11-20T20:45:24.464Z,63.47
2022-11-20T20:47:53.739Z,72.80
2022-11-20T20:50:22.717Z,79.03
2022-11-20T20:52:51.431Z,71.47
2022-11-20T20:55:20.350Z,83.10
2022-11-20T20:57:49.963Z,63.03
2022-11-20T21:00:21.067Z,64.87
2022-11-20T21:02:50.346Z,66.83
2022-11-20T21:05:19.189Z,78.80
2022-11-20T21:08:05.811Z,71.73
2022-11-20T21:10:34.912Z,71.87
2022-11-20T21:13:04.139Z,69.37
2022-11-20T21:15:34.593Z,84.27
2022-11-20T21:18:03.492Z,77.47
2022-11-20T21:20:49.886Z,63.23
2022-11-20T21:23:18.901Z,70.07
2022-11-20T21:25:48.173Z,95.17
2022-11-20T21:28:18.439Z,70.07
2022-11-20T21:30:48.965Z,73.80
2022-11-20T21:33:17.889Z,67.17
2022-11-20T21:35:46.716Z,62.93
2022-11-20T21:38:16.467Z,73.77
2022-11-20T21:40:45.845Z,71.50
2022-11-20T21:43:14.564Z,65.83
2022-11-20T21:45:43.296Z,61.10
2022-11-20T21:48:13.680Z,59.57
2022-11-20T21:50:42.978Z,77.80
2022-11-20T21:53:11.624Z,67.57
2022-11-20T21:55:40.359Z,80.30
2022-11-20T21:58:09.159Z,67.07
2022-11-20T22:00:38.287Z,58.53
2022-11-20T22:03:07.093Z,59.57
2022-11-20T22:05:37.383Z,65.23
2022-11-20T22:08:07.242Z,62.93
2022-11-20T22:10:36.054Z,104.33
2022-11-20T22:13:18.438Z,92.27
2022-11-20T22:16:00.424Z,90.77
2022-11-20T22:18:30.249Z,52.37
2022-11-20T22:21:05.730Z,66.17
2022-11-20T22:23:35.357Z,57.70
2022-11-20T22:26:05.723Z,52.33
2022-11-20T22:28:34.658Z,73.13
2022-11-20T22:31:04.604Z,65.87
2022-11-20T22:33:34.029Z,59.00
2022-11-20T22:36:05.618Z,64.30
2022-11-20T22:38:39.059Z,66.13
2022-11-20T22:41:10.741Z,50.57
2022-11-20T22:43:39.838Z,57.23
2022-11-20T22:46:10.746Z,52.77
2022-11-20T22:48:42.386Z,45.13
2022-11-20T22:51:14.437Z,55.33
2022-11-20T22:53:43.993Z,47.67
2022-11-20T22:56:14.428Z,50.47
2022-11-20T22:58:45.455Z,62.73
2022-11-20T23:01:16.296Z,51.37
2022-11-20T23:03:46.767Z,49.13
2022-11-20T23:06:18.622Z,55.80
2022-11-20T23:08:48.307Z,55.20
2022-11-20T23:11:18.711Z,49.63
2022-11-20T23:13:48.015Z,49.27
2022-11-20T23:16:18.172Z,55.20
2022-11-20T23:18:47.798Z,52.93
2022-11-20T23:21:19.150Z,53.93
2022-11-20T23:23:50.390Z,54.77
2022-11-20T23:26:20.946Z,44.67
2022-11-20T23:28:49.769Z,60.50
2022-11-20T23:31:18.645Z,42.40
2022-11-20T23:33:48.224Z,46.37
2022-11-20T23:36:18.462Z,48.03
2022-11-20T23:38:47.280Z,56.17
2022-11-20T23:41:16.419Z,46.20
2022-11-20T23:43:45.349Z,46.00
2022-11-20T23:46:16.824Z,54.23
2022-11-20T23:48:46.582Z,40.83
2022-11-20T23:51:15.704Z,38.13
2022-11-20T23:53:45.928Z,49.47
2022-11-20T23:56:16.585Z,45.50
2022-11-20T23:58:45.386Z,43.80
